sensor_id;sensor_type;location;lat;lon;timestamp;P1;durP1;ratioP1;P2;durP2;ratioP2
55800;SDS011;41730;51.960;20.158;2023-04-25T00:01:44;7.90;;;6.00;;
55800;SDS011;41730;51.960;20.158;2023-04-25T00:04:15;9.30;;;6.40;;
55800;SDS011;41730;51.960;20.158;2023-04-25T00:06:47;7.70;;;5.70;;
55800;SDS011;41730;51.960;20.158;2023-04-25T00:09:23;8.00;;;5.90;;
55800;SDS011;41730;51.960;20.158;2023-04-25T00:12:01;8.00;;;5.90;;
55800;SDS011;41730;51.960;20.158;2023-04-25T00:15:00;8.60;;;6.30;;
55800;SDS011;41730;51.960;20.158;2023-04-25T00:17:35;9.60;;;6.10;;
55800;SDS011;41730;51.960;20.158;2023-04-25T00:20:09;8.50;;;6.10;;
55800;SDS011;41730;51.960;20.158;2023-04-25T00:22:43;7.10;;;5.70;;
55800;SDS011;41730;51.960;20.158;2023-04-25T00:25:16;9.10;;;5.60;;
55800;SDS011;41730;51.960;20.158;2023-04-25T00:27:49;7.50;;;5.30;;
55800;SDS011;41730;51.960;20.158;2023-04-25T00:30:21;8.30;;;5.90;;
55800;SDS011;41730;51.960;20.158;2023-04-25T00:32:53;6.40;;;4.80;;
55800;SDS011;41730;51.960;20.158;2023-04-25T00:35:24;6.80;;;5.00;;
55800;SDS011;41730;51.960;20.158;2023-04-25T00:37:56;8.30;;;5.20;;
55800;SDS011;41730;51.960;20.158;2023-04-25T00:40:28;8.30;;;5.10;;
55800;SDS011;41730;51.960;20.158;2023-04-25T00:43:01;7.00;;;4.80;;
55800;SDS011;41730;51.960;20.158;2023-04-25T00:45:41;7.60;;;5.20;;
55800;SDS011;41730;51.960;20.158;2023-04-25T00:48:17;8.00;;;5.20;;
55800;SDS011;41730;51.960;20.158;2023-04-25T00:50:58;7.20;;;4.90;;
55800;SDS011;41730;51.960;20.158;2023-04-25T00:53:30;8.40;;;5.00;;
55800;SDS011;41730;51.960;20.158;2023-04-25T00:56:03;7.50;;;5.50;;
55800;SDS011;41730;51.960;20.158;2023-04-25T00:58:35;6.10;;;4.50;;
55800;SDS011;41730;51.960;20.158;2023-04-25T01:01:08;8.10;;;4.70;;
55800;SDS011;41730;51.960;20.158;2023-04-25T01:03:40;6.80;;;4.30;;
55800;SDS011;41730;51.960;20.158;2023-04-25T01:06:13;6.50;;;4.30;;
55800;SDS011;41730;51.960;20.158;2023-04-25T01:08:45;6.40;;;4.50;;
55800;SDS011;41730;51.960;20.158;2023-04-25T01:11:17;7.20;;;4.50;;
55800;SDS011;41730;51.960;20.158;2023-04-25T01:13:49;6.20;;;4.40;;
55800;SDS011;41730;51.960;20.158;2023-04-25T01:16:20;7.70;;;4.40;;
55800;SDS011;41730;51.960;20.158;2023-04-25T01:18:53;5.50;;;4.00;;
55800;SDS011;41730;51.960;20.158;2023-04-25T01:21:25;6.00;;;3.60;;
55800;SDS011;41730;51.960;20.158;2023-04-25T01:23:59;6.30;;;3.80;;
55800;SDS011;41730;51.960;20.158;2023-04-25T01:26:31;5.00;;;3.20;;
55800;SDS011;41730;51.960;20.158;2023-04-25T01:29:03;5.40;;;3.90;;
55800;SDS011;41730;51.960;20.158;2023-04-25T01:31:37;5.10;;;3.30;;
55800;SDS011;41730;51.960;20.158;2023-04-25T01:34:10;5.50;;;3.40;;
55800;SDS011;41730;51.960;20.158;2023-04-25T01:36:43;4.90;;;3.20;;
55800;SDS011;41730;51.960;20.158;2023-04-25T01:39:16;5.40;;;3.50;;
55800;SDS011;41730;51.960;20.158;2023-04-25T01:41:49;4.00;;;3.20;;
55800;SDS011;41730;51.960;20.158;2023-04-25T01:44:20;5.10;;;3.20;;
55800;SDS011;41730;51.960;20.158;2023-04-25T01:46:53;4.50;;;3.00;;
55800;SDS011;41730;51.960;20.158;2023-04-25T01:49:32;4.50;;;2.90;;
55800;SDS011;41730;51.960;20.158;2023-04-25T01:52:05;5.30;;;3.30;;
55800;SDS011;41730;51.960;20.158;2023-04-25T01:54:37;4.50;;;3.10;;
55800;SDS011;41730;51.960;20.158;2023-04-25T01:57:12;4.50;;;3.20;;
55800;SDS011;41730;51.960;20.158;2023-04-25T01:59:48;4.40;;;3.20;;
55800;SDS011;41730;51.960;20.158;2023-04-25T02:02:23;4.50;;;2.90;;
55800;SDS011;41730;51.960;20.158;2023-04-25T02:04:55;5.00;;;3.50;;
55800;SDS011;41730;51.960;20.158;2023-04-25T02:07:29;5.00;;;3.70;;
55800;SDS011;41730;51.960;20.158;2023-04-25T02:10:05;5.70;;;3.80;;
55800;SDS011;41730;51.960;20.158;2023-04-25T02:12:49;5.20;;;3.60;;
55800;SDS011;41730;51.960;20.158;2023-04-25T02:15:20;5.30;;;3.20;;
55800;SDS011;41730;51.960;20.158;2023-04-25T02:17:54;6.10;;;3.60;;
55800;SDS011;41730;51.960;20.158;2023-04-25T02:20:43;4.80;;;3.60;;
55800;SDS011;41730;51.960;20.158;2023-04-25T02:23:34;5.90;;;3.70;;
55800;SDS011;41730;51.960;20.158;2023-04-25T02:26:32;4.70;;;3.40;;
55800;SDS011;41730;51.960;20.158;2023-04-25T02:29:10;5.50;;;3.80;;
55800;SDS011;41730;51.960;20.158;2023-04-25T02:31:53;6.40;;;3.90;;
55800;SDS011;41730;51.960;20.158;2023-04-25T02:34:29;5.30;;;3.70;;
55800;SDS011;41730;51.960;20.158;2023-04-25T02:40:20;5.40;;;3.30;;
55800;SDS011;41730;51.960;20.158;2023-04-25T02:43:08;5.20;;;4.20;;
55800;SDS011;41730;51.960;20.158;2023-04-25T02:45:47;4.80;;;3.50;;
55800;SDS011;41730;51.960;20.158;2023-04-25T02:48:22;7.60;;;4.30;;
55800;SDS011;41730;51.960;20.158;2023-04-25T02:51:03;5.00;;;4.00;;
55800;SDS011;41730;51.960;20.158;2023-04-25T02:53:49;5.90;;;4.40;;
55800;SDS011;41730;51.960;20.158;2023-04-25T02:56:23;7.30;;;4.70;;
55800;SDS011;41730;51.960;20.158;2023-04-25T02:58:59;7.50;;;5.10;;
55800;SDS011;41730;51.960;20.158;2023-04-25T03:01:54;6.80;;;5.10;;
55800;SDS011;41730;51.960;20.158;2023-04-25T03:04:29;9.10;;;5.30;;
55800;SDS011;41730;51.960;20.158;2023-04-25T03:07:12;9.00;;;5.60;;
55800;SDS011;41730;51.960;20.158;2023-04-25T03:13:08;8.80;;;5.20;;
55800;SDS011;41730;51.960;20.158;2023-04-25T03:15:40;7.60;;;6.20;;
55800;SDS011;41730;51.960;20.158;2023-04-25T03:18:11;7.00;;;5.60;;
55800;SDS011;41730;51.960;20.158;2023-04-25T03:20:43;9.30;;;6.00;;
55800;SDS011;41730;51.960;20.158;2023-04-25T03:23:17;9.60;;;6.20;;
55800;SDS011;41730;51.960;20.158;2023-04-25T03:25:48;10.10;;;6.30;;
55800;SDS011;41730;51.960;20.158;2023-04-25T03:28:20;8.20;;;6.50;;
55800;SDS011;41730;51.960;20.158;2023-04-25T03:30:57;8.40;;;6.20;;
55800;SDS011;41730;51.960;20.158;2023-04-25T03:33:29;8.00;;;5.60;;
55800;SDS011;41730;51.960;20.158;2023-04-25T03:36:01;10.20;;;6.10;;
55800;SDS011;41730;51.960;20.158;2023-04-25T03:38:36;9.80;;;6.20;;
55800;SDS011;41730;51.960;20.158;2023-04-25T03:41:09;9.30;;;6.60;;
55800;SDS011;41730;51.960;20.158;2023-04-25T03:43:41;9.80;;;6.60;;
55800;SDS011;41730;51.960;20.158;2023-04-25T03:57:32;8.80;;;6.60;;
55800;SDS011;41730;51.960;20.158;2023-04-25T04:00:28;9.60;;;6.90;;
55800;SDS011;41730;51.960;20.158;2023-04-25T04:02:59;9.00;;;6.70;;
55800;SDS011;41730;51.960;20.158;2023-04-25T04:05:31;11.10;;;6.50;;
55800;SDS011;41730;51.960;20.158;2023-04-25T04:08:06;9.10;;;6.00;;
55800;SDS011;41730;51.960;20.158;2023-04-25T04:10:47;8.30;;;5.70;;
55800;SDS011;41730;51.960;20.158;2023-04-25T04:13:20;8.90;;;6.20;;
55800;SDS011;41730;51.960;20.158;2023-04-25T04:15:52;7.60;;;5.90;;
55800;SDS011;41730;51.960;20.158;2023-04-25T04:18:24;8.20;;;6.10;;
55800;SDS011;41730;51.960;20.158;2023-04-25T04:20:56;8.80;;;6.70;;
55800;SDS011;41730;51.960;20.158;2023-04-25T04:23:27;9.50;;;5.90;;
55800;SDS011;41730;51.960;20.158;2023-04-25T04:25:59;8.40;;;5.80;;
55800;SDS011;41730;51.960;20.158;2023-04-25T04:28:58;7.20;;;5.40;;
55800;SDS011;41730;51.960;20.158;2023-04-25T04:31:37;9.00;;;6.00;;
55800;SDS011;41730;51.960;20.158;2023-04-25T04:34:19;9.10;;;6.30;;
55800;SDS011;41730;51.960;20.158;2023-04-25T04:36:57;7.70;;;6.30;;
55800;SDS011;41730;51.960;20.158;2023-04-25T04:39:29;8.90;;;5.80;;
55800;SDS011;41730;51.960;20.158;2023-04-25T04:42:01;7.80;;;5.60;;
55800;SDS011;41730;51.960;20.158;2023-04-25T04:44:33;9.20;;;6.20;;
55800;SDS011;41730;51.960;20.158;2023-04-25T04:47:07;9.80;;;5.50;;
55800;SDS011;41730;51.960;20.158;2023-04-25T04:49:38;7.40;;;5.70;;
55800;SDS011;41730;51.960;20.158;2023-04-25T04:52:11;8.10;;;5.90;;
55800;SDS011;41730;51.960;20.158;2023-04-25T04:54:42;9.10;;;5.60;;
55800;SDS011;41730;51.960;20.158;2023-04-25T04:57:14;7.50;;;5.50;;
55800;SDS011;41730;51.960;20.158;2023-04-25T04:59:54;6.80;;;4.60;;
55800;SDS011;41730;51.960;20.158;2023-04-25T05:02:29;7.00;;;5.00;;
55800;SDS011;41730;51.960;20.158;2023-04-25T05:05:05;8.30;;;5.50;;
55800;SDS011;41730;51.960;20.158;2023-04-25T05:07:37;8.10;;;5.70;;
55800;SDS011;41730;51.960;20.158;2023-04-25T05:10:09;9.70;;;5.60;;
55800;SDS011;41730;51.960;20.158;2023-04-25T05:12:41;8.90;;;5.90;;
55800;SDS011;41730;51.960;20.158;2023-04-25T05:15:13;7.70;;;5.30;;
55800;SDS011;41730;51.960;20.158;2023-04-25T05:17:46;9.40;;;5.40;;
55800;SDS011;41730;51.960;20.158;2023-04-25T05:20:18;6.00;;;4.80;;
55800;SDS011;41730;51.960;20.158;2023-04-25T05:22:50;8.00;;;4.90;;
55800;SDS011;41730;51.960;20.158;2023-04-25T05:25:22;6.30;;;4.40;;
55800;SDS011;41730;51.960;20.158;2023-04-25T05:27:53;8.20;;;4.60;;
55800;SDS011;41730;51.960;20.158;2023-04-25T05:30:26;7.90;;;4.30;;
55800;SDS011;41730;51.960;20.158;2023-04-25T05:33:00;6.20;;;4.50;;
55800;SDS011;41730;51.960;20.158;2023-04-25T05:35:34;7.30;;;4.50;;
55800;SDS011;41730;51.960;20.158;2023-04-25T05:38:08;5.00;;;4.10;;
55800;SDS011;41730;51.960;20.158;2023-04-25T05:40:46;7.00;;;4.60;;
55800;SDS011;41730;51.960;20.158;2023-04-25T05:43:32;7.10;;;4.80;;
55800;SDS011;41730;51.960;20.158;2023-04-25T05:46:50;6.00;;;4.20;;
55800;SDS011;41730;51.960;20.158;2023-04-25T05:49:22;7.00;;;4.80;;
55800;SDS011;41730;51.960;20.158;2023-04-25T05:51:54;7.40;;;5.10;;
55800;SDS011;41730;51.960;20.158;2023-04-25T05:54:26;7.70;;;5.20;;
55800;SDS011;41730;51.960;20.158;2023-04-25T05:56:59;7.10;;;5.00;;
55800;SDS011;41730;51.960;20.158;2023-04-25T05:59:35;7.20;;;5.00;;
55800;SDS011;41730;51.960;20.158;2023-04-25T06:02:08;6.80;;;4.80;;
55800;SDS011;41730;51.960;20.158;2023-04-25T06:04:43;6.70;;;4.50;;
55800;SDS011;41730;51.960;20.158;2023-04-25T06:07:15;5.50;;;3.90;;
55800;SDS011;41730;51.960;20.158;2023-04-25T06:09:57;6.10;;;3.60;;
55800;SDS011;41730;51.960;20.158;2023-04-25T06:12:29;4.80;;;3.30;;
55800;SDS011;41730;51.960;20.158;2023-04-25T06:15:01;4.80;;;3.20;;
55800;SDS011;41730;51.960;20.158;2023-04-25T06:17:54;5.20;;;3.20;;
55800;SDS011;41730;51.960;20.158;2023-04-25T06:20:26;5.00;;;3.50;;
55800;SDS011;41730;51.960;20.158;2023-04-25T06:22:58;5.20;;;3.40;;
55800;SDS011;41730;51.960;20.158;2023-04-25T06:25:38;6.90;;;3.80;;
55800;SDS011;41730;51.960;20.158;2023-04-25T06:28:16;5.10;;;3.80;;
55800;SDS011;41730;51.960;20.158;2023-04-25T06:30:50;5.70;;;3.90;;
55800;SDS011;41730;51.960;20.158;2023-04-25T06:33:28;6.80;;;4.40;;
55800;SDS011;41730;51.960;20.158;2023-04-25T06:36:01;5.90;;;3.80;;
55800;SDS011;41730;51.960;20.158;2023-04-25T06:38:33;5.20;;;4.30;;
55800;SDS011;41730;51.960;20.158;2023-04-25T06:41:04;4.90;;;3.70;;
55800;SDS011;41730;51.960;20.158;2023-04-25T06:46:10;6.30;;;3.90;;
55800;SDS011;41730;51.960;20.158;2023-04-25T06:48:42;5.50;;;3.30;;
55800;SDS011;41730;51.960;20.158;2023-04-25T06:51:14;5.60;;;3.10;;
55800;SDS011;41730;51.960;20.158;2023-04-25T06:53:51;5.10;;;2.90;;
55800;SDS011;41730;51.960;20.158;2023-04-25T06:56:22;7.30;;;2.80;;
55800;SDS011;41730;51.960;20.158;2023-04-25T06:59:00;4.90;;;3.20;;
55800;SDS011;41730;51.960;20.158;2023-04-25T07:01:34;4.30;;;3.30;;
55800;SDS011;41730;51.960;20.158;2023-04-25T07:04:13;5.40;;;3.00;;
55800;SDS011;41730;51.960;20.158;2023-04-25T07:06:46;3.70;;;2.80;;
55800;SDS011;41730;51.960;20.158;2023-04-25T07:09:18;5.00;;;2.90;;
55800;SDS011;41730;51.960;20.158;2023-04-25T07:12:00;4.20;;;2.90;;
55800;SDS011;41730;51.960;20.158;2023-04-25T07:14:35;7.30;;;3.20;;
55800;SDS011;41730;51.960;20.158;2023-04-25T07:17:09;5.90;;;4.00;;
55800;SDS011;41730;51.960;20.158;2023-04-25T07:20:20;5.10;;;3.70;;
55800;SDS011;41730;51.960;20.158;2023-04-25T07:22:54;7.80;;;4.40;;
55800;SDS011;41730;51.960;20.158;2023-04-25T07:25:26;13.30;;;7.60;;
55800;SDS011;41730;51.960;20.158;2023-04-25T07:27:59;7.50;;;6.40;;
55800;SDS011;41730;51.960;20.158;2023-04-25T07:30:34;8.00;;;4.70;;
55800;SDS011;41730;51.960;20.158;2023-04-25T07:33:07;7.10;;;4.40;;
55800;SDS011;41730;51.960;20.158;2023-04-25T07:35:40;6.50;;;4.70;;
55800;SDS011;41730;51.960;20.158;2023-04-25T07:38:13;7.60;;;6.50;;
55800;SDS011;41730;51.960;20.158;2023-04-25T07:40:46;10.20;;;8.20;;
55800;SDS011;41730;51.960;20.158;2023-04-25T07:43:18;6.10;;;5.00;;
55800;SDS011;41730;51.960;20.158;2023-04-25T07:45:50;6.00;;;4.70;;
55800;SDS011;41730;51.960;20.158;2023-04-25T07:48:22;8.10;;;5.90;;
55800;SDS011;41730;51.960;20.158;2023-04-25T07:50:55;6.80;;;5.30;;
55800;SDS011;41730;51.960;20.158;2023-04-25T07:53:27;4.90;;;4.30;;
55800;SDS011;41730;51.960;20.158;2023-04-25T07:56:00;7.00;;;5.50;;
55800;SDS011;41730;51.960;20.158;2023-04-25T07:58:32;7.70;;;4.50;;
55800;SDS011;41730;51.960;20.158;2023-04-25T08:01:04;5.80;;;4.30;;
55800;SDS011;41730;51.960;20.158;2023-04-25T08:03:37;6.50;;;4.10;;
55800;SDS011;41730;51.960;20.158;2023-04-25T08:06:11;6.40;;;4.00;;
55800;SDS011;41730;51.960;20.158;2023-04-25T08:08:48;6.70;;;3.70;;
55800;SDS011;41730;51.960;20.158;2023-04-25T08:11:21;5.50;;;3.50;;
55800;SDS011;41730;51.960;20.158;2023-04-25T08:13:53;4.40;;;3.70;;
55800;SDS011;41730;51.960;20.158;2023-04-25T08:16:26;5.30;;;4.00;;
55800;SDS011;41730;51.960;20.158;2023-04-25T08:18:59;5.80;;;3.80;;
55800;SDS011;41730;51.960;20.158;2023-04-25T08:21:32;4.30;;;3.20;;
55800;SDS011;41730;51.960;20.158;2023-04-25T08:24:04;6.90;;;4.10;;
55800;SDS011;41730;51.960;20.158;2023-04-25T08:26:39;6.30;;;3.60;;
55800;SDS011;41730;51.960;20.158;2023-04-25T08:29:12;3.90;;;2.80;;
55800;SDS011;41730;51.960;20.158;2023-04-25T08:31:44;5.60;;;2.80;;
55800;SDS011;41730;51.960;20.158;2023-04-25T08:34:17;3.80;;;3.00;;
55800;SDS011;41730;51.960;20.158;2023-04-25T08:36:50;4.80;;;3.00;;
55800;SDS011;41730;51.960;20.158;2023-04-25T08:39:25;5.50;;;3.20;;
55800;SDS011;41730;51.960;20.158;2023-04-25T08:41:57;5.80;;;3.00;;
55800;SDS011;41730;51.960;20.158;2023-04-25T08:47:04;6.70;;;2.90;;
55800;SDS011;41730;51.960;20.158;2023-04-25T08:49:37;4.40;;;2.70;;
55800;SDS011;41730;51.960;20.158;2023-04-25T08:52:15;4.40;;;3.10;;
55800;SDS011;41730;51.960;20.158;2023-04-25T08:54:53;5.40;;;2.90;;
55800;SDS011;41730;51.960;20.158;2023-04-25T08:57:26;3.60;;;3.00;;
55800;SDS011;41730;51.960;20.158;2023-04-25T09:00:01;3.50;;;3.10;;
55800;SDS011;41730;51.960;20.158;2023-04-25T09:02:36;4.70;;;3.30;;
55800;SDS011;41730;51.960;20.158;2023-04-25T09:05:10;4.60;;;3.30;;
55800;SDS011;41730;51.960;20.158;2023-04-25T09:07:46;5.00;;;3.20;;
55800;SDS011;41730;51.960;20.158;2023-04-25T09:10:18;3.60;;;3.00;;
55800;SDS011;41730;51.960;20.158;2023-04-25T09:15:47;5.30;;;3.40;;
55800;SDS011;41730;51.960;20.158;2023-04-25T09:18:24;5.70;;;3.20;;
55800;SDS011;41730;51.960;20.158;2023-04-25T09:20:58;4.20;;;2.80;;
55800;SDS011;41730;51.960;20.158;2023-04-25T09:23:43;4.60;;;3.10;;
55800;SDS011;41730;51.960;20.158;2023-04-25T09:26:18;5.40;;;2.80;;
55800;SDS011;41730;51.960;20.158;2023-04-25T09:28:51;6.40;;;3.40;;
55800;SDS011;41730;51.960;20.158;2023-04-25T09:31:36;4.20;;;2.80;;
55800;SDS011;41730;51.960;20.158;2023-04-25T09:34:13;3.30;;;2.40;;
55800;SDS011;41730;51.960;20.158;2023-04-25T09:36:45;4.60;;;2.70;;
55800;SDS011;41730;51.960;20.158;2023-04-25T09:39:19;5.10;;;2.80;;
55800;SDS011;41730;51.960;20.158;2023-04-25T09:41:55;5.10;;;3.10;;
55800;SDS011;41730;51.960;20.158;2023-04-25T09:44:27;5.00;;;2.90;;
55800;SDS011;41730;51.960;20.158;2023-04-25T09:47:01;5.70;;;2.40;;
55800;SDS011;41730;51.960;20.158;2023-04-25T09:49:33;6.60;;;3.30;;
55800;SDS011;41730;51.960;20.158;2023-04-25T09:52:13;4.10;;;2.90;;
55800;SDS011;41730;51.960;20.158;2023-04-25T09:54:48;5.30;;;3.00;;
55800;SDS011;41730;51.960;20.158;2023-04-25T09:57:22;15.20;;;4.10;;
55800;SDS011;41730;51.960;20.158;2023-04-25T09:59:55;4.90;;;3.30;;
55800;SDS011;41730;51.960;20.158;2023-04-25T10:02:33;4.70;;;3.10;;
55800;SDS011;41730;51.960;20.158;2023-04-25T10:05:09;4.60;;;3.40;;
55800;SDS011;41730;51.960;20.158;2023-04-25T10:07:42;5.60;;;2.80;;
55800;SDS011;41730;51.960;20.158;2023-04-25T10:10:16;6.00;;;3.30;;
55800;SDS011;41730;51.960;20.158;2023-04-25T10:16:09;5.20;;;3.40;;
55800;SDS011;41730;51.960;20.158;2023-04-25T10:18:41;3.70;;;2.80;;
55800;SDS011;41730;51.960;20.158;2023-04-25T10:21:14;4.00;;;2.80;;
55800;SDS011;41730;51.960;20.158;2023-04-25T10:23:47;4.80;;;3.20;;
55800;SDS011;41730;51.960;20.158;2023-04-25T10:26:21;3.50;;;2.60;;
55800;SDS011;41730;51.960;20.158;2023-04-25T10:29:00;5.70;;;3.70;;
55800;SDS011;41730;51.960;20.158;2023-04-25T10:31:38;5.30;;;3.40;;
55800;SDS011;41730;51.960;20.158;2023-04-25T10:34:19;5.00;;;3.40;;
55800;SDS011;41730;51.960;20.158;2023-04-25T10:36:53;5.60;;;3.40;;
55800;SDS011;41730;51.960;20.158;2023-04-25T10:39:27;4.40;;;3.10;;
55800;SDS011;41730;51.960;20.158;2023-04-25T10:41:59;5.10;;;3.20;;
55800;SDS011;41730;51.960;20.158;2023-04-25T10:44:36;6.80;;;3.40;;
55800;SDS011;41730;51.960;20.158;2023-04-25T10:47:10;4.10;;;3.00;;
55800;SDS011;41730;51.960;20.158;2023-04-25T10:49:47;4.70;;;2.90;;
55800;SDS011;41730;51.960;20.158;2023-04-25T10:52:26;8.50;;;3.70;;
55800;SDS011;41730;51.960;20.158;2023-04-25T10:54:58;5.60;;;3.90;;
55800;SDS011;41730;51.960;20.158;2023-04-25T10:57:39;6.00;;;4.00;;
55800;SDS011;41730;51.960;20.158;2023-04-25T11:00:14;4.80;;;3.80;;
55800;SDS011;41730;51.960;20.158;2023-04-25T11:02:51;3.80;;;3.30;;
55800;SDS011;41730;51.960;20.158;2023-04-25T11:05:29;5.50;;;3.80;;
55800;SDS011;41730;51.960;20.158;2023-04-25T11:08:18;6.70;;;3.50;;
55800;SDS011;41730;51.960;20.158;2023-04-25T11:11:05;5.80;;;3.50;;
55800;SDS011;41730;51.960;20.158;2023-04-25T11:13:39;4.70;;;4.00;;
55800;SDS011;41730;51.960;20.158;2023-04-25T11:16:11;5.70;;;4.00;;
55800;SDS011;41730;51.960;20.158;2023-04-25T11:18:56;6.60;;;4.30;;
55800;SDS011;41730;51.960;20.158;2023-04-25T11:21:29;4.30;;;3.60;;
55800;SDS011;41730;51.960;20.158;2023-04-25T11:24:04;4.90;;;3.80;;
55800;SDS011;41730;51.960;20.158;2023-04-25T11:26:36;5.80;;;4.20;;
55800;SDS011;41730;51.960;20.158;2023-04-25T11:29:08;4.10;;;3.50;;
55800;SDS011;41730;51.960;20.158;2023-04-25T11:31:40;5.10;;;3.80;;
55800;SDS011;41730;51.960;20.158;2023-04-25T11:34:18;4.70;;;4.10;;
55800;SDS011;41730;51.960;20.158;2023-04-25T11:36:50;3.90;;;3.00;;
55800;SDS011;41730;51.960;20.158;2023-04-25T11:39:23;4.80;;;3.80;;
55800;SDS011;41730;51.960;20.158;2023-04-25T11:41:55;4.90;;;3.50;;
55800;SDS011;41730;51.960;20.158;2023-04-25T11:44:28;8.60;;;3.70;;
55800;SDS011;41730;51.960;20.158;2023-04-25T11:47:03;4.70;;;4.10;;
55800;SDS011;41730;51.960;20.158;2023-04-25T11:49:36;5.50;;;4.00;;
55800;SDS011;41730;51.960;20.158;2023-04-25T11:52:08;5.50;;;4.10;;
55800;SDS011;41730;51.960;20.158;2023-04-25T11:54:41;4.90;;;3.70;;
55800;SDS011;41730;51.960;20.158;2023-04-25T11:57:17;4.90;;;3.60;;
55800;SDS011;41730;51.960;20.158;2023-04-25T11:59:51;5.10;;;3.80;;
55800;SDS011;41730;51.960;20.158;2023-04-25T12:02:27;5.40;;;3.70;;
55800;SDS011;41730;51.960;20.158;2023-04-25T12:05:02;6.20;;;3.70;;
55800;SDS011;41730;51.960;20.158;2023-04-25T12:07:58;4.10;;;3.10;;
55800;SDS011;41730;51.960;20.158;2023-04-25T12:10:43;6.60;;;3.60;;
55800;SDS011;41730;51.960;20.158;2023-04-25T12:13:20;4.00;;;3.20;;
55800;SDS011;41730;51.960;20.158;2023-04-25T12:15:55;4.60;;;3.20;;
55800;SDS011;41730;51.960;20.158;2023-04-25T12:18:28;4.00;;;3.40;;
55800;SDS011;41730;51.960;20.158;2023-04-25T12:21:01;5.50;;;3.50;;
55800;SDS011;41730;51.960;20.158;2023-04-25T12:23:38;6.60;;;3.90;;
55800;SDS011;41730;51.960;20.158;2023-04-25T12:26:10;4.90;;;3.20;;
55800;SDS011;41730;51.960;20.158;2023-04-25T12:28:44;4.70;;;3.30;;
55800;SDS011;41730;51.960;20.158;2023-04-25T12:31:18;5.40;;;3.50;;
55800;SDS011;41730;51.960;20.158;2023-04-25T12:33:52;5.50;;;2.80;;
55800;SDS011;41730;51.960;20.158;2023-04-25T12:36:34;7.40;;;3.60;;
55800;SDS011;41730;51.960;20.158;2023-04-25T12:39:10;5.80;;;4.10;;
55800;SDS011;41730;51.960;20.158;2023-04-25T12:41:47;4.90;;;3.60;;
55800;SDS011;41730;51.960;20.158;2023-04-25T12:48:04;6.40;;;4.70;;
55800;SDS011;41730;51.960;20.158;2023-04-25T12:50:36;5.80;;;4.20;;
55800;SDS011;41730;51.960;20.158;2023-04-25T12:53:14;7.30;;;5.00;;
55800;SDS011;41730;51.960;20.158;2023-04-25T12:56:26;5.70;;;4.50;;
55800;SDS011;41730;51.960;20.158;2023-04-25T12:58:58;6.10;;;4.10;;
55800;SDS011;41730;51.960;20.158;2023-04-25T13:01:31;6.40;;;4.10;;
55800;SDS011;41730;51.960;20.158;2023-04-25T13:04:05;5.40;;;4.50;;
55800;SDS011;41730;51.960;20.158;2023-04-25T13:06:41;6.90;;;4.60;;
55800;SDS011;41730;51.960;20.158;2023-04-25T13:09:25;6.80;;;4.60;;
55800;SDS011;41730;51.960;20.158;2023-04-25T13:12:04;6.70;;;4.20;;
55800;SDS011;41730;51.960;20.158;2023-04-25T13:14:42;6.90;;;5.30;;
55800;SDS011;41730;51.960;20.158;2023-04-25T13:17:16;6.80;;;5.10;;
55800;SDS011;41730;51.960;20.158;2023-04-25T13:19:54;8.90;;;6.30;;
55800;SDS011;41730;51.960;20.158;2023-04-25T13:22:27;7.60;;;5.50;;
55800;SDS011;41730;51.960;20.158;2023-04-25T13:25:01;6.70;;;5.60;;
55800;SDS011;41730;51.960;20.158;2023-04-25T13:27:37;8.00;;;6.10;;
55800;SDS011;41730;51.960;20.158;2023-04-25T13:30:17;7.60;;;5.70;;
55800;SDS011;41730;51.960;20.158;2023-04-25T13:32:50;6.90;;;5.30;;
55800;SDS011;41730;51.960;20.158;2023-04-25T13:35:26;10.00;;;6.00;;
55800;SDS011;41730;51.960;20.158;2023-04-25T13:38:00;9.40;;;6.20;;
55800;SDS011;41730;51.960;20.158;2023-04-25T13:40:32;9.80;;;6.80;;
55800;SDS011;41730;51.960;20.158;2023-04-25T13:43:05;8.10;;;6.20;;
55800;SDS011;41730;51.960;20.158;2023-04-25T13:45:37;9.60;;;6.40;;
55800;SDS011;41730;51.960;20.158;2023-04-25T13:48:10;8.20;;;5.70;;
55800;SDS011;41730;51.960;20.158;2023-04-25T13:50:42;11.10;;;8.10;;
55800;SDS011;41730;51.960;20.158;2023-04-25T13:53:15;7.30;;;5.50;;
55800;SDS011;41730;51.960;20.158;2023-04-25T13:55:47;7.50;;;5.80;;
55800;SDS011;41730;51.960;20.158;2023-04-25T13:58:21;8.30;;;6.00;;
55800;SDS011;41730;51.960;20.158;2023-04-25T14:00:55;8.10;;;5.60;;
55800;SDS011;41730;51.960;20.158;2023-04-25T14:03:28;8.10;;;6.20;;
55800;SDS011;41730;51.960;20.158;2023-04-25T14:06:01;6.90;;;5.50;;
55800;SDS011;41730;51.960;20.158;2023-04-25T14:08:33;9.20;;;6.20;;
55800;SDS011;41730;51.960;20.158;2023-04-25T14:11:06;10.40;;;6.30;;
55800;SDS011;41730;51.960;20.158;2023-04-25T14:13:42;8.00;;;5.50;;
55800;SDS011;41730;51.960;20.158;2023-04-25T14:16:16;8.80;;;5.40;;
55800;SDS011;41730;51.960;20.158;2023-04-25T14:18:48;10.70;;;6.50;;
55800;SDS011;41730;51.960;20.158;2023-04-25T14:21:20;9.70;;;6.10;;
55800;SDS011;41730;51.960;20.158;2023-04-25T14:23:55;9.80;;;5.20;;
55800;SDS011;41730;51.960;20.158;2023-04-25T14:26:31;9.30;;;6.00;;
55800;SDS011;41730;51.960;20.158;2023-04-25T14:29:17;15.30;;;6.90;;
55800;SDS011;41730;51.960;20.158;2023-04-25T14:32:27;16.50;;;7.50;;
55800;SDS011;41730;51.960;20.158;2023-04-25T14:35:33;16.40;;;7.70;;
55800;SDS011;41730;51.960;20.158;2023-04-25T14:38:07;20.20;;;12.00;;
55800;SDS011;41730;51.960;20.158;2023-04-25T14:40:42;21.10;;;13.30;;
55800;SDS011;41730;51.960;20.158;2023-04-25T14:43:19;17.00;;;10.00;;
55800;SDS011;41730;51.960;20.158;2023-04-25T14:45:51;11.60;;;7.40;;
55800;SDS011;41730;51.960;20.158;2023-04-25T14:51:32;8.00;;;5.70;;
55800;SDS011;41730;51.960;20.158;2023-04-25T14:54:21;13.80;;;8.80;;
55800;SDS011;41730;51.960;20.158;2023-04-25T14:56:55;13.10;;;7.40;;
55800;SDS011;41730;51.960;20.158;2023-04-25T14:59:33;14.50;;;8.90;;
55800;SDS011;41730;51.960;20.158;2023-04-25T15:05:01;12.00;;;7.90;;
55800;SDS011;41730;51.960;20.158;2023-04-25T15:07:53;11.00;;;7.40;;
55800;SDS011;41730;51.960;20.158;2023-04-25T15:11:02;10.50;;;7.00;;
55800;SDS011;41730;51.960;20.158;2023-04-25T15:14:03;11.70;;;8.30;;
55800;SDS011;41730;51.960;20.158;2023-04-25T15:17:16;13.00;;;8.40;;
55800;SDS011;41730;51.960;20.158;2023-04-25T15:23:16;9.90;;;7.00;;
55800;SDS011;41730;51.960;20.158;2023-04-25T15:26:43;11.50;;;8.40;;
55800;SDS011;41730;51.960;20.158;2023-04-25T15:29:33;9.70;;;7.30;;
55800;SDS011;41730;51.960;20.158;2023-04-25T15:35:54;15.40;;;8.60;;
55800;SDS011;41730;51.960;20.158;2023-04-25T15:38:26;11.50;;;7.60;;
55800;SDS011;41730;51.960;20.158;2023-04-25T15:40:58;10.90;;;7.30;;
55800;SDS011;41730;51.960;20.158;2023-04-25T15:43:32;10.70;;;7.10;;
55800;SDS011;41730;51.960;20.158;2023-04-25T15:46:06;12.30;;;7.00;;
55800;SDS011;41730;51.960;20.158;2023-04-25T15:48:39;9.80;;;7.00;;
55800;SDS011;41730;51.960;20.158;2023-04-25T15:58:55;10.40;;;7.40;;
55800;SDS011;41730;51.960;20.158;2023-04-25T16:01:27;9.90;;;7.40;;
55800;SDS011;41730;51.960;20.158;2023-04-25T16:03:59;15.20;;;9.00;;
55800;SDS011;41730;51.960;20.158;2023-04-25T16:06:32;10.80;;;8.90;;
55800;SDS011;41730;51.960;20.158;2023-04-25T16:09:06;12.90;;;8.60;;
55800;SDS011;41730;51.960;20.158;2023-04-25T16:11:49;13.80;;;9.90;;
55800;SDS011;41730;51.960;20.158;2023-04-25T16:14:24;12.90;;;8.80;;
55800;SDS011;41730;51.960;20.158;2023-04-25T16:19:36;12.60;;;8.60;;
55800;SDS011;41730;51.960;20.158;2023-04-25T16:22:15;14.80;;;9.40;;